Time;durP1;ratioP1;P1;durP2;ratioP2;P2;SDS_P1;SDS_P2;PMS_P1;PMS_P2;Temp;Humidity;BMP_temperature;BMP_pressure;BME280_temperature;BME280_humidity;BME280_pressure;Samples;Min_cycle;Max_cycle;Signal;HPM_P1;HPM_P2
2022/07/07 00:02:26;;;;;;;7.70;3.60;;;;;;;18.97;56.47;99328.89;235794;1204;138931;-58
2022/07/07 00:07:32;;;;;;;9.20;3.70;;;;;;;18.93;56.53;99331.89;235634;1203;138543;-58
2022/07/07 00:12:35;;;;;;;6.20;3.50;;;;;;;18.89;56.65;99330.50;235957;1203;138656;-58
2022/07/07 00:17:38;;;;;;;9.80;3.40;;;;;;;18.80;56.72;99326.45;235725;1202;138650;-58
2022/07/07 00:22:41;;;;;;;4.40;3.20;;;;;;;18.70;56.78;99314.40;235795;1201;138454;-58
2022/07/07 00:27:44;;;;;;;6.40;3.00;;;;;;;18.66;57.02;99320.16;235788;1200;139084;-60
2022/07/07 00:32:47;;;;;;;9.90;3.70;;;;;;;18.61;57.29;99320.71;235855;1201;139563;-60
2022/07/07 00:37:50;;;;;;;6.10;3.80;;;;;;;18.61;57.37;99315.77;235845;1200;139885;-60
2022/07/07 00:42:53;;;;;;;6.80;3.60;;;;;;;18.52;57.42;99312.29;235934;1198;138356;-60
2022/07/07 00:47:58;;;;;;;6.80;3.80;;;;;;;18.42;57.47;99306.52;235898;1201;142192;-61
2022/07/07 00:53:01;;;;;;;6.60;3.70;;;;;;;18.34;57.68;99305.45;235651;1201;138998;-59
2022/07/07 00:58:04;;;;;;;12.60;3.20;;;;;;;18.30;57.85;99304.86;235789;1203;138463;-59
2022/07/07 01:03:08;;;;;;;5.90;3.30;;;;;;;18.28;57.84;99309.59;235464;1203;139195;-61
2022/07/07 01:08:15;;;;;;;5.80;3.40;;;;;;;18.24;57.79;99308.70;235412;1203;138722;-60
2022/07/07 01:13:18;;;;;;;9.00;3.60;;;;;;;18.14;57.89;99302.34;235879;1200;139526;-60
2022/07/07 01:18:21;;;;;;;9.00;3.40;;;;;;;18.08;58.24;99305.01;235689;1203;139049;-61
2022/07/07 01:23:25;;;;;;;5.10;3.00;;;;;;;18.09;58.26;99304.11;235398;1201;139422;-58
2022/07/07 01:28:28;;;;;;;6.30;3.70;;;;;;;18.15;58.51;99300.82;235879;1203;140722;-59
2022/07/07 01:33:31;;;;;;;9.00;3.50;;;;;;;18.16;58.49;99299.61;235832;1203;138372;-60
2022/07/07 01:38:35;;;;;;;6.00;3.70;;;;;;;18.18;58.35;99305.98;235840;1201;138185;-60
2022/07/07 01:43:38;;;;;;;11.00;3.80;;;;;;;18.14;58.43;99312.77;235797;1201;138648;-59
2022/07/07 01:48:40;;;;;;;6.40;3.30;;;;;;;18.13;58.55;99299.98;235796;1203;138746;-60
2022/07/07 01:53:43;;;;;;;7.50;3.30;;;;;;;18.03;58.52;99298.11;235502;1201;138408;-59
2022/07/07 01:58:46;;;;;;;9.70;4.10;;;;;;;17.93;58.44;99298.27;236025;1201;138914;-59
2022/07/07 02:03:50;;;;;;;6.70;3.70;;;;;;;17.84;58.69;99298.93;236049;1201;138919;-58
2022/07/07 02:08:53;;;;;;;9.80;3.50;;;;;;;17.86;58.95;99305.40;235791;1201;139265;-60
2022/07/07 02:13:56;;;;;;;10.60;3.60;;;;;;;17.88;58.98;99295.50;235981;1200;138829;-61
2022/07/07 02:19:02;;;;;;;9.50;3.50;;;;;;;17.90;59.13;99302.53;235795;1201;138440;-60
2022/07/07 02:24:05;;;;;;;7.60;3.60;;;;;;;17.91;59.28;99296.11;235794;1200;138315;-60
2022/07/07 02:29:09;;;;;;;9.70;3.40;;;;;;;17.89;59.21;99295.61;235806;1200;139337;-61
2022/07/07 02:34:12;;;;;;;11.30;3.40;;;;;;;17.82;59.06;99290.33;235879;1202;138417;-59
2022/07/07 02:39:15;;;;;;;10.10;3.60;;;;;;;17.70;58.92;99292.23;235803;1200;140878;-60
2022/07/07 02:44:18;;;;;;;8.50;3.60;;;;;;;17.61;59.12;99290.00;235864;1201;138731;-60
2022/07/07 02:49:21;;;;;;;7.90;3.60;;;;;;;17.55;59.17;99290.44;235802;1200;138777;-59
2022/07/07 02:54:24;;;;;;;6.10;3.30;;;;;;;17.49;59.56;99290.31;235766;1200;139077;-60
2022/07/07 02:59:27;;;;;;;7.20;3.70;;;;;;;17.43;59.38;99289.52;235896;1200;139060;-59
2022/07/07 03:04:30;;;;;;;6.40;3.90;;;;;;;17.39;59.59;99284.55;235848;1203;139279;-59
2022/07/07 03:09:33;;;;;;;12.20;4.30;;;;;;;17.38;59.58;99276.33;235808;1203;139030;-59
2022/07/07 03:14:37;;;;;;;6.70;3.70;;;;;;;17.35;59.78;99274.67;235691;1201;139383;-60
2022/07/07 03:19:39;;;;;;;8.40;3.90;;;;;;;17.35;60.02;99279.29;235823;1203;138756;-60
2022/07/07 03:24:43;;;;;;;7.80;4.10;;;;;;;17.39;60.27;99283.27;235737;1203;139974;-60
2022/07/07 03:29:46;;;;;;;7.20;3.50;;;;;;;17.39;60.15;99279.15;235836;1203;138584;-58
2022/07/07 03:34:49;;;;;;;10.70;3.90;;;;;;;17.46;60.51;99278.88;235641;1203;139355;-58
2022/07/07 03:39:52;;;;;;;8.10;3.70;;;;;;;17.51;60.27;99274.51;236109;1201;138954;-57
2022/07/07 03:44:55;;;;;;;6.90;3.50;;;;;;;17.52;60.40;99265.59;235789;1203;139012;-59
2022/07/07 03:49:58;;;;;;;7.80;4.00;;;;;;;17.56;60.42;99261.51;235813;1202;138404;-59
2022/07/07 03:55:01;;;;;;;10.10;3.80;;;;;;;17.58;60.68;99268.02;235899;1201;138814;-59
2022/07/07 04:00:06;;;;;;;10.10;4.10;;;;;;;17.56;60.44;99264.56;235840;1201;139947;-60
2022/07/07 04:05:11;;;;;;;9.00;4.20;;;;;;;17.54;60.56;99269.38;235780;1203;140000;-60
2022/07/07 04:10:15;;;;;;;10.60;4.30;;;;;;;17.55;60.40;99277.72;235878;1202;139053;-60
2022/07/07 04:15:18;;;;;;;8.40;3.70;;;;;;;17.60;60.75;99277.81;235873;1200;138792;-59
2022/07/07 04:20:21;;;;;;;7.60;3.60;;;;;;;17.72;60.75;99274.63;235831;1200;140428;-62
2022/07/07 04:25:26;;;;;;;8.20;3.60;;;;;;;17.84;60.72;99275.25;235791;1203;139064;-62
2022/07/07 04:30:29;;;;;;;9.70;4.20;;;;;;;17.90;60.64;99275.23;235829;1201;139370;-60
2022/07/07 04:35:32;;;;;;;9.60;4.10;;;;;;;17.92;60.35;99273.66;235689;1203;139216;-60
2022/07/07 04:40:35;;;;;;;9.70;4.10;;;;;;;17.92;60.26;99276.30;235904;1202;138686;-61
2022/07/07 04:45:39;;;;;;;7.30;3.70;;;;;;;17.96;60.41;99269.91;235798;1203;138998;-63
2022/07/07 04:50:42;;;;;;;7.00;4.40;;;;;;;17.94;60.42;99262.07;235824;1201;138843;-60
2022/07/07 04:55:45;;;;;;;23.70;15.80;;;;;;;17.95;60.54;99270.64;235898;1200;138968;-58
2022/07/07 05:00:48;;;;;;;11.00;4.30;;;;;;;17.96;60.52;99267.48;235697;1202;138783;-58
2022/07/07 05:05:51;;;;;;;8.60;4.10;;;;;;;17.98;60.51;99268.03;235752;1201;139186;-58
2022/07/07 05:10:54;;;;;;;48.30;37.80;;;;;;;18.02;60.42;99263.80;235707;1203;138809;-58
2022/07/07 05:15:57;;;;;;;10.60;5.00;;;;;;;18.08;60.70;99261.95;235888;1202;138786;-58
2022/07/07 05:21:00;;;;;;;11.00;5.00;;;;;;;18.19;60.69;99267.81;235832;1202;138571;-60
2022/07/07 05:26:03;;;;;;;9.70;4.60;;;;;;;18.34;60.59;99266.77;235856;1201;138649;-60
2022/07/07 05:31:06;;;;;;;84.80;58.90;;;;;;;18.42;60.50;99259.77;235792;1203;140064;-60
2022/07/07 05:36:10;;;;;;;13.80;7.70;;;;;;;18.47;60.40;99254.52;235872;1201;138793;-60
2022/07/07 05:41:13;;;;;;;27.00;18.10;;;;;;;18.53;60.43;99254.09;235910;1201;138565;-59
2022/07/07 05:46:16;;;;;;;9.10;6.20;;;;;;;18.91;61.19;99256.77;235856;1201;138728;-60
2022/07/07 05:51:19;;;;;;;19.90;6.50;;;;;;;19.33;61.25;99257.70;235818;1203;139697;-60
2022/07/07 05:56:22;;;;;;;13.00;6.30;;;;;;;19.73;60.63;99252.44;235886;1200;138593;-60
2022/07/07 06:01:25;;;;;;;12.80;6.70;;;;;;;19.94;59.98;99251.45;235774;1202;138627;-61
2022/07/07 06:06:28;;;;;;;34.00;23.80;;;;;;;20.04;59.32;99246.46;235711;1203;139523;-59
2022/07/07 06:11:31;;;;;;;17.80;7.90;;;;;;;19.97;58.88;99244.85;235928;1200;138682;-59
2022/07/07 06:16:43;;;;;;;14.70;7.60;;;;;;;20.04;58.99;99243.98;235892;1201;138984;-59
2022/07/07 06:21:46;;;;;;;10.40;5.70;;;;;;;20.09;58.77;99237.71;235952;1201;138816;-59
2022/07/07 06:26:49;;;;;;;16.50;6.20;;;;;;;20.22;58.55;99241.70;235756;1201;139306;-59
2022/07/07 06:31:52;;;;;;;10.80;5.70;;;;;;;20.27;58.28;99232.73;235875;1201;139098;-58
2022/07/07 06:36:55;;;;;;;11.60;5.40;;;;;;;20.41;58.17;99227.74;235654;1203;138799;-60
2022/07/07 06:41:58;;;;;;;25.00;15.50;;;;;;;20.55;58.44;99228.50;235833;1200;139278;-58
2022/07/07 06:47:06;;;;;;;13.30;6.20;;;;;;;20.69;57.73;99230.16;235728;1202;138978;-57
2022/07/07 06:52:10;;;;;;;14.70;5.60;;;;;;;20.70;57.39;99224.10;236066;1200;138825;-59
2022/07/07 06:57:13;;;;;;;11.70;5.60;;;;;;;20.76;57.22;99225.52;235762;1200;138475;-58
2022/07/07 07:02:15;;;;;;;10.20;5.50;;;;;;;20.80;57.28;99220.20;235678;1201;139597;-59
2022/07/07 07:07:18;;;;;;;9.90;5.20;;;;;;;20.87;57.02;99219.52;235843;1201;138838;-59
2022/07/07 07:12:21;;;;;;;14.90;9.40;;;;;;;20.96;57.02;99219.30;235771;1202;138758;-55
2022/07/07 07:17:25;;;;;;;12.90;5.70;;;;;;;21.21;56.83;99219.41;235853;1201;138885;-56
2022/07/07 07:22:35;;;;;;;12.80;5.80;;;;;;;21.34;56.17;99218.29;235830;1202;138525;-57
2022/07/07 07:27:38;;;;;;;13.50;4.80;;;;;;;21.46;55.55;99209.40;235801;1201;138353;-58
2022/07/07 07:32:43;;;;;;;9.80;5.10;;;;;;;21.65;56.24;99208.77;235779;1203;138320;-57
2022/07/07 07:37:46;;;;;;;14.40;4.60;;;;;;;21.98;56.38;99206.49;235729;1203;139002;-58
2022/07/07 07:42:49;;;;;;;18.10;4.30;;;;;;;22.07;55.53;99203.02;235900;1201;138572;-56
2022/07/07 07:47:52;;;;;;;7.10;3.60;;;;;;;22.18;54.78;99207.58;235818;1201;138616;-56
2022/07/07 07:52:55;;;;;;;67.00;50.20;;;;;;;22.25;54.48;99201.80;235761;1203;138627;-56
2022/07/07 07:57:58;;;;;;;15.40;7.00;;;;;;;22.30;53.87;99200.35;235898;1201;138633;-59
2022/07/07 08:03:01;;;;;;;9.00;5.50;;;;;;;22.31;53.37;99194.11;235849;1203;138624;-59
2022/07/07 08:08:05;;;;;;;10.90;5.30;;;;;;;22.36;53.22;99190.81;235839;1201;139418;-60
2022/07/07 08:13:08;;;;;;;12.30;5.20;;;;;;;22.36;52.81;99195.29;235870;1201;138815;-59
2022/07/07 08:18:11;;;;;;;9.10;5.30;;;;;;;22.46;53.21;99190.27;235743;1200;138450;-59
2022/07/07 08:23:14;;;;;;;18.50;13.20;;;;;;;22.59;52.62;99194.84;235731;1202;138678;-59
2022/07/07 08:28:17;;;;;;;14.40;8.60;;;;;;;22.65;52.03;99194.91;235914;1203;141012;-58
2022/07/07 08:33:20;;;;;;;11.30;5.20;;;;;;;22.72;52.22;99187.38;235787;1201;139009;-57
2022/07/07 08:38:23;;;;;;;6.20;3.20;;;;;;;22.84;52.01;99191.14;235727;1203;138381;-59
2022/07/07 08:43:26;;;;;;;4.70;2.70;;;;;;;22.93;51.51;99189.09;235841;1201;139459;-59
2022/07/07 08:48:29;;;;;;;9.30;2.50;;;;;;;22.95;51.15;99188.77;235701;1202;138458;-56
2022/07/07 08:53:34;;;;;;;67.70;47.60;;;;;;;22.97;50.89;99177.84;235803;1203;138422;-57
2022/07/07 08:58:38;;;;;;;19.60;14.30;;;;;;;23.01;50.06;99182.06;235700;1203;138948;-57
2022/07/07 09:04:03;;;;;;;6.50;3.90;;;;;;;23.03;50.08;99178.04;235989;1201;138772;-55
2022/07/07 09:09:06;;;;;;;13.90;9.50;;;;;;;23.08;50.24;99182.03;235652;1202;139018;-57
2022/07/07 09:14:14;;;;;;;8.10;5.30;;;;;;;23.11;49.98;99176.97;235791;1202;138708;-56
2022/07/07 09:19:20;;;;;;;9.80;7.70;;;;;;;23.12;49.67;99178.80;235691;1201;138998;-57
2022/07/07 09:24:23;;;;;;;;;;;;;;;23.15;49.58;99179.98;235742;1203;139709;-57
2022/07/07 09:29:27;;;;;;;8.30;3.50;;;;;;;23.11;49.04;99186.00;235798;1201;124839;-57
2022/07/07 09:34:32;;;;;;;39.30;30.80;;;;;;;23.07;48.81;99183.80;235779;1202;139146;-55
2022/07/07 09:39:55;;;;;;;20.90;14.60;;;;;;;22.99;48.31;99179.02;235792;1201;139003;-56
2022/07/07 09:45:12;;;;;;;23.60;14.00;;;;;;;22.98;49.05;99171.89;235707;1201;138756;-55
2022/07/07 09:50:15;;;;;;;5.00;3.20;;;;;;;23.21;48.68;99174.58;235725;1201;139165;-55
2022/07/07 09:55:19;;;;;;;8.20;2.70;;;;;;;23.32;48.42;99161.58;235748;1202;138765;-57
2022/07/07 10:00:22;;;;;;;6.80;3.00;;;;;;;23.27;47.89;99162.73;235744;1202;138368;-57
2022/07/07 10:05:26;;;;;;;21.00;16.80;;;;;;;23.28;47.88;99157.86;235846;1201;138557;-54
2022/07/07 10:10:30;;;;;;;12.40;8.50;;;;;;;23.63;48.46;99147.11;235966;1201;139032;-56
2022/07/07 10:15:35;;;;;;;3.40;2.50;;;;;;;23.93;48.08;99138.88;235749;1202;138640;-57
2022/07/07 10:20:39;;;;;;;10.70;6.20;;;;;;;24.25;47.42;99140.73;235738;1202;138735;-58
2022/07/07 10:25:42;;;;;;;6.60;4.90;;;;;;;24.55;47.39;99136.15;235780;1202;138607;-56
2022/07/07 10:30:45;;;;;;;3.60;2.20;;;;;;;24.89;46.70;99139.25;235811;1201;138771;-58
2022/07/07 10:35:54;;;;;;;6.60;2.20;;;;;;;25.17;46.09;99138.82;235714;1203;229443;-57
2022/07/07 10:40:58;;;;;;;4.20;2.10;;;;;;;25.43;45.23;99129.31;235826;1201;138566;-57
2022/07/07 10:46:03;;;;;;;6.40;1.60;;;;;;;25.44;44.15;99127.65;235810;1201;138262;-57
2022/07/07 10:51:26;;;;;;;4.30;1.50;;;;;;;25.34;43.53;99133.09;235663;1203;138571;-58
2022/07/07 10:56:55;;;;;;;4.30;1.90;;;;;;;25.13;42.96;99124.64;235742;1201;138835;-57
2022/07/07 11:02:01;;;;;;;3.40;1.60;;;;;;;24.94;42.98;99125.59;235700;1203;139352;-56
2022/07/07 11:07:21;;;;;;;4.30;1.70;;;;;;;24.81;42.81;99124.84;235686;1201;139228;-58
2022/07/07 11:12:34;;;;;;;33.70;22.30;;;;;;;24.76;42.81;99126.84;235727;1204;138517;-57
2022/07/07 11:17:37;;;;;;;7.10;3.00;;;;;;;24.91;43.00;99118.79;235805;1203;139824;-59
2022/07/07 11:22:46;;;;;;;2.90;1.80;;;;;;;25.35;43.03;99106.14;235740;1203;138542;-56
2022/07/07 11:27:50;;;;;;;4.10;2.30;;;;;;;25.68;42.82;99094.52;235952;1201;138346;-58
2022/07/07 11:32:58;;;;;;;12.00;7.40;;;;;;;25.89;42.28;99094.30;235618;1203;138162;-56
2022/07/07 11:38:01;;;;;;;4.30;2.90;;;;;;;25.83;41.60;99092.40;235625;1203;138796;-56
2022/07/07 11:43:05;;;;;;;5.60;2.40;;;;;;;25.85;41.42;99087.44;235714;1201;151103;-58
2022/07/07 11:48:14;;;;;;;2.80;1.60;;;;;;;25.98;41.22;99078.52;235747;1203;138745;-56
2022/07/07 11:53:21;;;;;;;5.20;2.10;;;;;;;26.00;41.21;99072.70;235774;1203;138919;-57
2022/07/07 11:58:24;;;;;;;7.40;1.60;;;;;;;26.01;40.65;99073.19;235383;1201;138525;-56
2022/07/07 12:03:30;;;;;;;75.70;55.40;;;;;;;25.95;40.70;99060.49;235764;1203;138846;-57
2022/07/07 12:08:36;;;;;;;7.10;4.50;;;;;;;25.99;40.83;99058.09;235737;1202;138914;-57
2022/07/07 12:13:39;;;;;;;3.60;2.00;;;;;;;26.08;40.78;99059.20;235760;1203;138558;-57
2022/07/07 12:18:43;;;;;;;10.60;2.80;;;;;;;26.14;40.79;99056.63;235858;1201;139248;-56
2022/07/07 12:23:46;;;;;;;149.90;112.50;;;;;;;26.20;40.53;99061.33;235701;1202;138915;-57
2022/07/07 12:28:49;;;;;;;11.30;6.20;;;;;;;26.09;40.14;99051.61;235777;1201;139281;-55
2022/07/07 12:33:52;;;;;;;7.50;5.30;;;;;;;25.96;40.53;99051.70;235850;1203;138600;-57
2022/07/07 12:38:58;;;;;;;30.50;17.00;;;;;;;25.81;40.40;99051.98;235878;1202;139047;-56
2022/07/07 12:44:19;;;;;;;28.20;21.30;;;;;;;25.75;40.43;99051.67;235804;1200;139811;-56
2022/07/07 12:50:02;;;;;;;4.80;2.30;;;;;;;25.85;40.77;99040.74;235713;1201;138818;-57
2022/07/07 12:55:11;;;;;;;8.10;2.10;;;;;;;26.25;40.51;99039.39;235680;1203;138501;-57
2022/07/07 13:00:25;;;;;;;6.50;1.90;;;;;;;26.31;40.12;99030.08;235768;1201;138271;-57
2022/07/07 13:05:28;;;;;;;4.60;1.80;;;;;;;26.28;39.68;99034.29;235726;1201;138773;-55
2022/07/07 13:10:31;;;;;;;4.80;2.30;;;;;;;26.15;39.57;99034.86;235908;1203;138346;-54
2022/07/07 13:15:34;;;;;;;4.20;1.90;;;;;;;26.00;39.29;99031.55;235720;1202;138228;-58
2022/07/07 13:20:37;;;;;;;53.70;48.20;;;;;;;25.85;39.30;99022.58;235874;1203;138323;-57
2022/07/07 13:25:40;;;;;;;5.40;2.50;;;;;;;25.74;39.40;99028.42;235709;1202;139515;-56
2022/07/07 13:30:43;;;;;;;346.70;291.90;;;;;;;25.63;39.57;99027.73;235759;1203;138196;-57
2022/07/07 13:35:46;;;;;;;470.90;406.30;;;;;;;25.53;40.19;99025.22;235699;1201;139457;-57
2022/07/07 13:40:51;;;;;;;11.10;8.50;;;;;;;25.46;40.10;99028.61;235638;1201;139475;-55
2022/07/07 13:45:54;;;;;;;;;;;;;;;25.43;39.95;99025.98;235806;1202;138780;-56
2022/07/07 13:50:57;;;;;;;5.80;2.20;;;;;;;25.43;39.83;99016.15;235850;1201;124820;-57
2022/07/07 13:56:01;;;;;;;5.50;3.30;;;;;;;25.51;39.95;99011.52;235584;1200;138645;-57
2022/07/07 14:01:07;;;;;;;83.30;74.10;;;;;;;25.66;40.27;99007.42;235689;1201;138300;-55
2022/07/07 14:06:10;;;;;;;12.70;8.10;;;;;;;26.05;40.00;99003.95;235763;1203;139463;-56
2022/07/07 14:11:13;;;;;;;3.80;2.40;;;;;;;26.08;39.41;99001.95;235647;1203;138500;-58
2022/07/07 14:16:17;;;;;;;7.00;1.70;;;;;;;25.94;39.38;99005.94;235770;1203;139163;-57
2022/07/07 14:21:20;;;;;;;3.30;2.30;;;;;;;25.76;39.17;99002.21;235750;1201;139103;-58
2022/07/07 14:26:23;;;;;;;85.50;72.30;;;;;;;25.60;39.09;99003.83;235513;1203;139244;-56
2022/07/07 14:31:28;;;;;;;10.10;4.60;;;;;;;25.48;38.95;98996.61;235632;1203;138829;-58
2022/07/07 14:36:32;;;;;;;11.70;4.80;;;;;;;25.36;39.07;99001.07;235645;1201;138743;-57
2022/07/07 14:41:36;;;;;;;4.20;2.90;;;;;;;25.22;39.53;99002.34;235697;1201;139097;-57
2022/07/07 14:46:39;;;;;;;7.20;2.40;;;;;;;25.20;39.54;99008.77;235643;1201;138950;-56
2022/07/07 14:51:44;;;;;;;7.40;2.10;;;;;;;25.19;39.66;99007.83;235899;1200;138585;-58
2022/07/07 14:56:47;;;;;;;;;;;;;;;25.23;39.82;99012.58;235791;1201;138623;-58
2022/07/07 15:01:50;;;;;;;56.50;46.60;;;;;;;25.23;39.90;99010.56;235763;1203;124820;-57
2022/07/07 15:06:55;;;;;;;10.50;5.50;;;;;;;25.20;39.88;99009.55;235654;1200;138685;-57
2022/07/07 15:11:58;;;;;;;4.80;2.10;;;;;;;25.18;40.09;99008.99;235819;1203;138270;-58
2022/07/07 15:17:01;;;;;;;148.00;125.40;;;;;;;25.17;39.83;99018.11;235629;1203;138695;-56
2022/07/07 15:22:04;;;;;;;24.20;19.80;;;;;;;25.13;39.99;99018.58;235798;1203;139582;-57
2022/07/07 15:27:07;;;;;;;11.90;8.80;;;;;;;25.08;39.97;99013.88;235484;1203;139197;-57
2022/07/07 15:32:10;;;;;;;7.70;2.40;;;;;;;25.01;40.13;99005.09;235440;1202;138933;-58
2022/07/07 15:37:14;;;;;;;4.60;2.80;;;;;;;24.97;40.20;99009.80;235380;1203;138733;-58
2022/07/07 15:42:20;;;;;;;6.90;2.50;;;;;;;24.85;40.41;99005.48;235519;1202;139463;-56
2022/07/07 15:47:23;;;;;;;5.30;2.10;;;;;;;24.82;40.68;99012.42;235464;1203;140232;-58
2022/07/07 15:52:28;;;;;;;8.40;2.20;;;;;;;24.73;40.72;99006.33;235636;1204;138757;-58
2022/07/07 15:57:31;;;;;;;6.30;2.50;;;;;;;24.69;40.85;99015.73;235460;1203;139254;-58
2022/07/07 16:02:34;;;;;;;207.10;167.60;;;;;;;24.63;41.12;99016.52;235413;1203;138465;-57
2022/07/07 16:07:37;;;;;;;23.00;12.60;;;;;;;24.62;41.39;99023.20;235350;1203;139312;-56
2022/07/07 16:12:40;;;;;;;6.20;3.10;;;;;;;24.51;41.54;99019.59;235492;1202;138569;-59
2022/07/07 16:17:43;;;;;;;8.70;2.40;;;;;;;24.42;41.69;99023.89;235420;1203;138244;-59
2022/07/07 16:22:50;;;;;;;5.70;2.50;;;;;;;24.38;41.88;99026.50;235554;1203;138700;-58
2022/07/07 16:27:53;;;;;;;7.20;3.10;;;;;;;24.35;42.14;99024.63;235837;1200;138738;-59
2022/07/07 16:32:57;;;;;;;8.50;2.20;;;;;;;24.31;42.38;99028.48;235673;1202;138655;-59
2022/07/07 16:38:00;;;;;;;7.90;3.60;;;;;;;24.27;42.64;99029.33;235419;1203;138669;-59
2022/07/07 16:43:03;;;;;;;5.50;2.50;;;;;;;24.16;42.69;99033.00;235767;1201;139481;-58
2022/07/07 16:48:06;;;;;;;6.50;2.50;;;;;;;24.11;42.88;99037.05;235800;1203;138725;-59
2022/07/07 16:53:09;;;;;;;58.60;50.70;;;;;;;24.07;42.90;99031.74;235679;1204;139482;-58
2022/07/07 16:58:12;;;;;;;10.70;6.20;;;;;;;24.02;43.16;99039.69;235861;1200;138896;-58
2022/07/07 17:03:15;;;;;;;6.00;2.70;;;;;;;23.96;43.13;99042.75;235593;1203;138947;-58
2022/07/07 17:08:20;;;;;;;7.70;2.00;;;;;;;23.91;42.89;99052.42;235696;1202;138938;-58
2022/07/07 17:13:24;;;;;;;2.80;1.80;;;;;;;23.72;42.71;99047.94;235741;1202;138853;-58
2022/07/07 17:18:28;;;;;;;;;;;;;;;23.49;42.73;99056.44;235897;1200;138512;-58
2022/07/07 17:23:31;;;;;;;4.00;1.90;;;;;;;23.28;42.92;99057.52;235850;1201;125625;-58
2022/07/07 17:28:34;;;;;;;3.60;1.40;;;;;;;23.14;43.18;99062.27;235862;1199;139484;-57
2022/07/07 17:33:38;;;;;;;102.00;83.50;;;;;;;23.00;43.13;99060.60;235663;1203;138318;-58
2022/07/07 17:38:41;;;;;;;6.50;4.80;;;;;;;22.80;43.53;99059.20;235692;1203;139187;-59
2022/07/07 17:43:44;;;;;;;4.70;1.30;;;;;;;22.66;43.55;99061.98;235716;1203;138880;-58
2022/07/07 17:48:47;;;;;;;3.00;1.30;;;;;;;22.49;43.82;99057.63;235689;1203;138494;-59
2022/07/07 17:53:49;;;;;;;1.50;1.00;;;;;;;22.31;43.95;99057.28;235833;1200;138660;-58
2022/07/07 17:58:52;;;;;;;2.30;1.20;;;;;;;22.18;44.13;99067.88;235816;1201;138953;-59
2022/07/07 18:03:55;;;;;;;3.10;1.10;;;;;;;22.04;44.25;99059.08;235836;1201;138702;-58
2022/07/07 18:08:59;;;;;;;2.20;1.10;;;;;;;21.98;44.48;99059.98;235822;1203;139175;-58
2022/07/07 18:14:02;;;;;;;2.80;1.20;;;;;;;21.89;44.61;99062.38;235655;1200;138624;-58
2022/07/07 18:19:05;;;;;;;3.40;1.40;;;;;;;21.86;44.72;99071.79;235749;1201;138451;-58
2022/07/07 18:24:08;;;;;;;2.70;1.80;;;;;;;21.82;44.96;99076.71;235666;1200;138700;-58
2022/07/07 18:29:11;;;;;;;5.30;3.30;;;;;;;21.73;45.20;99075.28;235689;1203;138814;-59
2022/07/07 18:34:14;;;;;;;1.70;1.40;;;;;;;21.65;45.39;99073.77;235843;1200;139545;-58
2022/07/07 18:39:17;;;;;;;2.00;1.40;;;;;;;21.68;45.51;99080.21;235701;1203;138630;-57
2022/07/07 18:44:20;;;;;;;141.80;124.90;;;;;;;21.65;45.81;99073.23;235726;1203;138498;-58
2022/07/07 18:49:23;;;;;;;10.40;7.50;;;;;;;21.63;46.06;99085.77;235640;1202;139840;-57
2022/07/07 18:54:27;;;;;;;30.20;26.70;;;;;;;21.69;46.69;99088.00;235693;1202;138395;-59
2022/07/07 18:59:30;;;;;;;3.20;2.50;;;;;;;21.80;46.61;99098.08;235781;1200;138905;-59
2022/07/07 19:04:33;;;;;;;1.80;1.40;;;;;;;21.74;46.20;99101.73;235936;1201;138779;-59
2022/07/07 19:09:36;;;;;;;3.70;1.90;;;;;;;21.66;46.13;99111.59;235803;1200;138700;-59
2022/07/07 19:14:39;;;;;;;4.60;1.50;;;;;;;21.60;46.39;99116.78;235827;1203;139066;-58
2022/07/07 19:19:42;;;;;;;3.10;1.40;;;;;;;21.54;46.38;99128.85;235711;1203;138649;-57
2022/07/07 19:24:45;;;;;;;6.80;1.40;;;;;;;21.49;46.59;99132.98;235653;1201;209156;-58
2022/07/07 19:29:49;;;;;;;2.10;1.20;;;;;;;21.44;46.62;99130.73;236147;1200;138598;-59
2022/07/07 19:34:52;;;;;;;3.10;1.40;;;;;;;21.41;46.71;99137.56;236178;1202;138443;-59
2022/07/07 19:39:56;;;;;;;1.60;1.30;;;;;;;21.37;46.81;99144.48;235890;1200;138995;-59
2022/07/07 19:44:59;;;;;;;4.90;2.10;;;;;;;21.37;47.04;99153.04;235666;1202;138662;-57
2022/07/07 19:50:03;;;;;;;3.80;1.60;;;;;;;21.39;47.27;99152.47;235283;1201;138489;-56
2022/07/07 19:55:06;;;;;;;7.10;3.50;;;;;;;21.36;47.42;99155.97;235705;1201;138837;-58
2022/07/07 20:00:10;;;;;;;5.40;1.80;;;;;;;21.34;47.54;99155.50;235668;1203;139205;-61
2022/07/07 20:05:13;;;;;;;2.70;1.90;;;;;;;21.30;47.57;99159.49;235650;1203;140319;-60
2022/07/07 20:10:16;;;;;;;6.00;2.50;;;;;;;21.27;47.95;99162.66;235882;1202;138590;-61
2022/07/07 20:15:19;;;;;;;5.40;1.80;;;;;;;21.22;48.00;99169.71;235654;1201;138480;-61
2022/07/07 20:20:23;;;;;;;4.30;2.00;;;;;;;21.19;48.13;99175.92;235779;1202;138870;-60
2022/07/07 20:25:26;;;;;;;2.50;1.90;;;;;;;21.21;48.31;99180.73;235393;1202;138979;-57
2022/07/07 20:30:30;;;;;;;4.60;2.20;;;;;;;21.16;48.43;99180.36;235679;1203;138954;-58
2022/07/07 20:35:33;;;;;;;3.90;2.10;;;;;;;21.16;48.51;99189.80;235679;1203;138961;-59
2022/07/07 20:40:36;;;;;;;5.50;2.10;;;;;;;21.13;48.68;99191.60;235856;1202;138999;-58
2022/07/07 20:45:39;;;;;;;5.50;1.90;;;;;;;21.10;48.88;99187.21;235766;1203;138749;-58
2022/07/07 20:50:42;;;;;;;3.40;2.20;;;;;;;21.04;48.95;99186.36;235749;1202;138018;-59
2022/07/07 20:55:46;;;;;;;4.60;2.20;;;;;;;21.00;49.04;99183.86;235782;1203;139215;-59
2022/07/07 21:00:49;;;;;;;3.90;2.00;;;;;;;21.03;49.10;99191.34;235821;1203;138972;-60
2022/07/07 21:05:53;;;;;;;4.50;2.30;;;;;;;20.99;49.11;99188.52;235801;1203;138989;-60
2022/07/07 21:10:56;;;;;;;4.00;2.10;;;;;;;20.94;49.33;99184.81;235792;1202;138432;-60
2022/07/07 21:15:59;;;;;;;5.10;2.40;;;;;;;20.94;49.56;99191.41;235975;1202;138578;-60
2022/07/07 21:21:02;;;;;;;3.70;2.10;;;;;;;20.92;49.81;99195.70;235812;1203;139459;-59
2022/07/07 21:26:05;;;;;;;2.90;2.40;;;;;;;20.87;49.96;99201.46;235714;1201;138392;-61
2022/07/07 21:31:08;;;;;;;3.70;2.40;;;;;;;20.82;50.15;99205.17;235833;1203;138438;-60
2022/07/07 21:36:11;;;;;;;5.20;2.80;;;;;;;20.81;50.38;99206.79;235250;1201;138398;-59
2022/07/07 21:41:14;;;;;;;3.80;2.10;;;;;;;20.69;50.86;99203.33;235428;1202;139120;-59
2022/07/07 21:46:18;;;;;;;2.80;2.40;;;;;;;20.61;51.23;99212.73;235861;1203;139677;-59
2022/07/07 21:51:22;;;;;;;3.70;2.50;;;;;;;20.51;51.43;99217.21;235825;1202;139091;-60
2022/07/07 21:56:25;;;;;;;4.40;2.80;;;;;;;20.44;51.85;99224.85;235812;1203;139203;-59
2022/07/07 22:01:28;;;;;;;4.70;2.50;;;;;;;20.38;51.97;99225.71;235880;1201;139076;-61
2022/07/07 22:11:53;;;;;;;3.80;2.80;;;;;;;20.35;52.58;99233.95;235796;1203;139502;-58
2022/07/07 22:16:57;;;;;;;3.60;3.10;;;;;;;20.31;52.78;99232.27;235821;1203;138567;-60
2022/07/07 22:22:00;;;;;;;5.60;3.00;;;;;;;20.32;52.97;99238.27;235897;1203;139231;-60
2022/07/07 22:27:03;;;;;;;5.00;3.20;;;;;;;20.31;53.20;99234.66;235834;1202;140112;-60
2022/07/07 22:32:10;;;;;;;3.70;2.80;;;;;;;20.32;53.52;99231.13;235808;1201;138698;-62
2022/07/07 22:37:13;;;;;;;4.80;3.20;;;;;;;20.28;53.83;99228.65;235866;1201;138920;-61
2022/07/07 22:42:16;;;;;;;4.50;2.80;;;;;;;20.29;54.07;99231.65;235794;1202;140208;-60
2022/07/07 22:47:19;;;;;;;5.70;2.90;;;;;;;20.32;54.17;99231.10;235898;1202;140065;-61
2022/07/07 22:52:22;;;;;;;4.90;3.20;;;;;;;20.36;54.61;99231.65;235892;1203;138584;-62
2022/07/07 22:57:25;;;;;;;6.90;3.30;;;;;;;20.36;55.06;99238.83;235255;1201;139172;-59
2022/07/07 23:02:28;;;;;;;3.90;2.80;;;;;;;20.33;55.20;99237.91;235790;1203;138605;-60
2022/07/07 23:07:31;;;;;;;5.30;3.40;;;;;;;20.27;55.39;99237.73;235793;1202;138576;-59
2022/07/07 23:12:34;;;;;;;4.90;3.20;;;;;;;20.22;55.47;99239.88;235794;1202;140617;-57
2022/07/07 23:17:37;;;;;;;6.60;3.40;;;;;;;20.17;55.64;99240.40;235993;1201;139507;-58